createdAt,value
2023-02-16T00:00:32.274Z,26.23
2023-02-16T00:01:36.188Z,27.48
2023-02-16T00:02:38.817Z,24.40
2023-02-16T00:03:41.305Z,24.55
2023-02-16T00:04:43.786Z,26.90
2023-02-16T00:05:46.488Z,26.90
2023-02-16T00:06:49.805Z,27.08
2023-02-16T00:07:54.930Z,25.88
2023-02-16T00:08:57.574Z,26.75
2023-02-16T00:10:00.006Z,27.45
2023-02-16T00:11:20.991Z,26.92
2023-02-16T00:12:42.072Z,26.90
2023-02-16T00:13:44.652Z,26.70
2023-02-16T00:14:47.389Z,27.55
2023-02-16T00:15:49.965Z,27.65
2023-02-16T00:16:53.666Z,26.17
2023-02-16T00:17:56.519Z,27.42
2023-02-16T00:18:59.004Z,27.15
2023-02-16T00:20:01.521Z,26.42
2023-02-16T00:21:04.438Z,27.65
2023-02-16T00:22:07.773Z,25.95
2023-02-16T00:23:10.470Z,25.08
2023-02-16T00:24:13.034Z,25.85
2023-02-16T00:25:15.779Z,27.25
2023-02-16T00:26:21.044Z,27.90
2023-02-16T00:27:23.674Z,28.83
2023-02-16T00:28:26.431Z,23.80
2023-02-16T00:29:37.498Z,26.83
2023-02-16T00:30:40.092Z,26.83
2023-02-16T00:31:43.078Z,28.45
2023-02-16T00:32:45.560Z,26.27
2023-02-16T00:33:48.372Z,28.88
2023-02-16T00:34:54.296Z,27.95
2023-02-16T00:35:57.492Z,25.15
2023-02-16T00:37:05.683Z,28.42
2023-02-16T00:38:08.293Z,29.90
2023-02-16T00:39:10.959Z,27.30
2023-02-16T00:40:14.934Z,27.30
2023-02-16T00:41:37.477Z,29.88
2023-02-16T00:42:40.448Z,28.70
2023-02-16T00:43:44.250Z,29.05
2023-02-16T00:44:52.256Z,26.27
2023-02-16T00:45:55.383Z,29.27
2023-02-16T00:47:02.770Z,28.92
2023-02-16T00:48:05.917Z,29.92
2023-02-16T00:49:14.926Z,28.02
2023-02-16T00:50:29.002Z,30.23
2023-02-16T00:51:31.659Z,29.65
2023-02-16T00:52:39.841Z,29.05
2023-02-16T00:53:42.299Z,30.25
2023-02-16T00:54:45.256Z,30.08
2023-02-16T00:55:47.723Z,30.38
2023-02-16T00:56:50.300Z,29.33
2023-02-16T00:57:55.792Z,28.42
2023-02-16T00:58:58.425Z,30.70
2023-02-16T01:00:28.992Z,31.20
2023-02-16T01:01:32.804Z,28.85
2023-02-16T01:02:35.515Z,27.13
2023-02-16T01:03:38.196Z,27.52
2023-02-16T01:04:40.878Z,29.05
2023-02-16T01:05:43.544Z,26.60
2023-02-16T01:07:04.948Z,28.80
2023-02-16T01:08:36.436Z,27.50
2023-02-16T01:09:58.548Z,27.08
2023-02-16T01:11:07.546Z,26.98
2023-02-16T01:12:15.934Z,30.08
2023-02-16T01:13:18.696Z,27.15
2023-02-16T01:14:21.209Z,28.23
2023-02-16T01:15:25.446Z,27.67
2023-02-16T01:16:40.027Z,27.83
2023-02-16T01:17:42.593Z,26.52
2023-02-16T01:18:45.700Z,26.70
2023-02-16T01:19:48.427Z,28.40
2023-02-16T01:20:52.011Z,27.80
2023-02-16T01:21:54.596Z,28.10
2023-02-16T01:22:57.593Z,27.60
2023-02-16T01:24:00.720Z,28.65
2023-02-16T01:25:03.304Z,28.38
2023-02-16T01:26:07.695Z,28.60
2023-02-16T01:27:13.950Z,27.20
2023-02-16T01:28:24.976Z,29.50
2023-02-16T01:29:27.484Z,26.27
2023-02-16T01:30:30.134Z,25.60
2023-02-16T01:31:33.048Z,26.70
2023-02-16T01:32:38.388Z,27.80
2023-02-16T01:33:43.602Z,26.73
2023-02-16T01:34:46.050Z,25.25
2023-02-16T01:35:48.826Z,28.08
2023-02-16T01:36:51.308Z,28.40
2023-02-16T01:37:53.816Z,27.25
2023-02-16T01:38:56.366Z,26.73
2023-02-16T01:39:58.928Z,27.63
2023-02-16T01:41:28.378Z,28.17
2023-02-16T01:42:47.442Z,27.98
2023-02-16T01:44:06.097Z,26.02
2023-02-16T01:45:15.353Z,26.58
2023-02-16T01:46:46.000Z,26.50
2023-02-16T01:47:53.686Z,25.85
2023-02-16T01:48:56.098Z,24.75
2023-02-16T01:49:59.738Z,24.30
2023-02-16T01:51:25.881Z,24.55
2023-02-16T01:52:36.646Z,25.30
2023-02-16T01:53:51.614Z,24.00
2023-02-16T01:55:13.557Z,26.17
2023-02-16T01:56:50.466Z,17.13
2023-02-16T01:57:56.622Z,20.95
2023-02-16T01:59:05.081Z,22.33
2023-02-16T02:00:09.710Z,21.55
2023-02-16T02:01:41.603Z,21.00
2023-02-16T02:02:50.844Z,22.27
2023-02-16T02:04:11.904Z,22.00
2023-02-16T02:06:41.126Z,18.90
2023-02-16T02:08:04.330Z,20.58
2023-02-16T02:09:16.309Z,22.10
2023-02-16T02:10:35.262Z,22.05
2023-02-16T02:11:47.203Z,20.25
2023-02-16T02:12:54.246Z,20.48
2023-02-16T02:14:06.031Z,18.40
2023-02-16T02:16:12.474Z,18.60
2023-02-16T02:17:18.205Z,17.67
2023-02-16T02:18:21.005Z,18.95
2023-02-16T02:19:23.793Z,20.25
2023-02-16T02:20:50.575Z,19.52
2023-02-16T02:22:32.777Z,19.27
2023-02-16T02:24:08.324Z,21.08
2023-02-16T02:25:38.050Z,21.42
2023-02-16T02:27:02.750Z,21.77
2023-02-16T02:28:19.404Z,22.48
2023-02-16T02:29:44.301Z,23.48
2023-02-16T02:30:53.270Z,21.05
2023-02-16T02:32:17.296Z,23.00
2023-02-16T02:33:29.352Z,22.55
2023-02-16T02:34:42.487Z,23.05
2023-02-16T02:35:51.713Z,23.08
2023-02-16T02:36:54.146Z,23.60
2023-02-16T02:38:13.071Z,21.70
2023-02-16T02:39:34.774Z,25.77
2023-02-16T02:40:58.806Z,23.13
2023-02-16T02:42:18.939Z,24.00
2023-02-16T02:43:41.649Z,24.33
2023-02-16T02:44:50.005Z,24.33
2023-02-16T02:45:59.766Z,20.15
2023-02-16T02:47:02.911Z,24.17
2023-02-16T02:48:05.660Z,24.90
2023-02-16T02:49:08.160Z,24.60
2023-02-16T02:51:04.058Z,23.27
2023-02-16T02:52:07.923Z,22.45
2023-02-16T02:53:14.761Z,24.30
2023-02-16T02:54:36.382Z,23.48
2023-02-16T02:56:03.799Z,22.27
2023-02-16T02:57:29.302Z,23.40
2023-02-16T02:58:52.698Z,20.90
2023-02-16T03:00:40.326Z,24.02
2023-02-16T03:01:50.633Z,22.38
2023-02-16T03:02:57.620Z,24.48
2023-02-16T03:04:00.750Z,23.13
2023-02-16T03:05:04.656Z,26.42
2023-02-16T03:06:15.523Z,26.42
2023-02-16T03:08:22.847Z,20.50
2023-02-16T03:09:25.750Z,23.02
2023-02-16T03:10:47.430Z,25.17
2023-02-16T03:12:09.243Z,22.85
2023-02-16T03:13:16.824Z,23.38
2023-02-16T03:14:25.093Z,22.38
2023-02-16T03:15:31.491Z,23.67
2023-02-16T03:16:45.931Z,23.00
2023-02-16T03:18:07.607Z,23.00
2023-02-16T03:19:32.302Z,23.85
2023-02-16T03:20:53.316Z,19.77
2023-02-16T03:22:15.753Z,19.55
2023-02-16T03:23:36.813Z,18.77
2023-02-16T03:24:58.005Z,19.55
2023-02-16T03:26:19.421Z,20.05
2023-02-16T03:27:44.353Z,19.67
2023-02-16T03:29:06.712Z,19.58
2023-02-16T03:30:11.093Z,20.35
2023-02-16T03:31:19.077Z,20.63
2023-02-16T03:32:21.990Z,19.17
2023-02-16T03:33:24.765Z,23.08
2023-02-16T03:34:28.388Z,23.42
2023-02-16T03:35:31.270Z,21.30
2023-02-16T03:36:36.279Z,21.33
2023-02-16T03:37:40.371Z,20.23
2023-02-16T03:38:42.866Z,21.13
2023-02-16T03:40:04.386Z,26.15
2023-02-16T03:41:07.011Z,23.83
2023-02-16T03:42:09.635Z,27.17
2023-02-16T03:43:12.332Z,23.75
2023-02-16T03:44:15.001Z,25.45
2023-02-16T03:45:18.948Z,25.00
2023-02-16T03:46:21.672Z,23.65
2023-02-16T03:47:24.119Z,23.88
2023-02-16T03:48:26.683Z,23.17
2023-02-16T03:49:29.265Z,25.08
2023-02-16T03:50:32.245Z,24.42
2023-02-16T03:51:35.102Z,26.02
2023-02-16T03:52:37.752Z,25.63
2023-02-16T03:53:40.250Z,28.08
2023-02-16T03:54:42.687Z,24.63
2023-02-16T03:55:47.211Z,26.40
2023-02-16T03:56:49.648Z,25.90
2023-02-16T03:57:52.198Z,25.27
2023-02-16T03:58:54.662Z,24.90
2023-02-16T03:59:59.228Z,23.67
2023-02-16T04:01:02.453Z,24.52
2023-02-16T04:02:05.271Z,26.13
2023-02-16T04:03:09.421Z,26.15
2023-02-16T04:04:11.864Z,27.27
2023-02-16T04:05:14.431Z,26.55
2023-02-16T04:06:17.219Z,25.85
2023-02-16T04:07:19.926Z,25.83
2023-02-16T04:08:22.757Z,26.15
2023-02-16T04:09:25.176Z,25.83
2023-02-16T04:10:28.080Z,23.42
2023-02-16T04:11:49.095Z,24.50
2023-02-16T04:12:51.864Z,23.95
2023-02-16T04:13:54.329Z,26.05
2023-02-16T04:14:56.950Z,25.35
2023-02-16T04:15:59.636Z,26.83
2023-02-16T04:17:03.523Z,25.15
2023-02-16T04:18:06.060Z,27.58
2023-02-16T04:19:08.796Z,25.08
2023-02-16T04:20:14.426Z,25.10
2023-02-16T04:21:16.976Z,23.88
2023-02-16T04:22:19.581Z,21.88
2023-02-16T04:23:22.069Z,23.70
2023-02-16T04:24:24.560Z,22.88
2023-02-16T04:25:27.369Z,24.25
2023-02-16T04:26:29.853Z,24.95
2023-02-16T04:27:32.562Z,24.20
2023-02-16T04:28:35.176Z,24.70
2023-02-16T04:29:37.706Z,25.83
2023-02-16T04:30:40.326Z,27.85
2023-02-16T04:31:43.237Z,26.67
2023-02-16T04:32:45.943Z,26.02
2023-02-16T04:33:48.348Z,29.77
2023-02-16T04:34:50.841Z,29.25
2023-02-16T04:35:53.258Z,27.60
2023-02-16T04:36:55.763Z,26.58
2023-02-16T04:37:58.276Z,27.85
2023-02-16T04:39:00.845Z,27.05
2023-02-16T04:40:04.742Z,29.58
2023-02-16T04:41:07.293Z,29.10
2023-02-16T04:42:09.787Z,26.33
2023-02-16T04:43:12.194Z,25.27
2023-02-16T04:44:14.718Z,26.80
2023-02-16T04:45:17.218Z,23.30
2023-02-16T04:46:19.685Z,22.05
2023-02-16T04:47:25.809Z,24.33
2023-02-16T04:48:28.429Z,23.90
2023-02-16T04:49:30.949Z,28.40
2023-02-16T04:50:33.687Z,25.35
2023-02-16T04:51:36.244Z,26.38
2023-02-16T04:52:39.305Z,24.50
2023-02-16T04:53:41.900Z,25.70
2023-02-16T04:54:44.371Z,26.73
2023-02-16T04:55:50.642Z,27.50
2023-02-16T04:56:53.161Z,27.08
2023-02-16T04:57:55.577Z,25.67
2023-02-16T04:58:58.176Z,25.55
2023-02-16T05:00:00.704Z,26.90
2023-02-16T05:01:04.017Z,28.10
2023-02-16T05:02:06.969Z,27.88
2023-02-16T05:03:10.007Z,28.13
2023-02-16T05:04:12.846Z,25.55
2023-02-16T05:05:15.638Z,27.92
2023-02-16T05:06:18.368Z,26.83
2023-02-16T05:07:20.899Z,26.30
2023-02-16T05:08:23.620Z,27.45
2023-02-16T05:09:26.276Z,27.95
2023-02-16T05:10:29.038Z,27.13
2023-02-16T05:11:50.149Z,27.52
2023-02-16T05:13:11.112Z,27.50
2023-02-16T05:15:40.872Z,23.88
2023-02-16T05:16:44.027Z,23.55
2023-02-16T05:17:46.701Z,25.52
2023-02-16T05:18:49.549Z,29.77
2023-02-16T05:19:55.095Z,27.90
2023-02-16T05:21:16.161Z,24.88
2023-02-16T05:22:19.482Z,27.17
2023-02-16T05:23:22.074Z,27.60
2023-02-16T05:24:25.395Z,27.40
2023-02-16T05:25:28.696Z,27.95
2023-02-16T05:26:31.376Z,27.95
2023-02-16T05:27:33.940Z,25.27
2023-02-16T05:28:36.457Z,29.48
2023-02-16T05:29:39.039Z,29.13
2023-02-16T05:30:41.578Z,27.77
2023-02-16T05:31:44.159Z,28.55
2023-02-16T05:32:46.666Z,26.73
2023-02-16T05:33:49.408Z,29.50
2023-02-16T05:34:51.883Z,31.63
2023-02-16T05:35:54.606Z,31.40
2023-02-16T05:36:57.105Z,29.95
2023-02-16T05:37:59.529Z,29.75
2023-02-16T05:39:02.195Z,30.27
2023-02-16T05:40:05.135Z,28.17
2023-02-16T05:41:07.807Z,30.58
2023-02-16T05:42:10.755Z,30.55
2023-02-16T05:43:13.310Z,31.77
2023-02-16T05:44:16.485Z,28.55
2023-02-16T05:45:19.551Z,27.67
2023-02-16T05:46:23.107Z,30.23
2023-02-16T05:47:25.732Z,29.92
2023-02-16T05:48:28.131Z,30.17
2023-02-16T05:49:30.830Z,30.65
2023-02-16T05:50:33.322Z,30.00
2023-02-16T05:51:36.761Z,27.17
2023-02-16T05:52:39.374Z,30.23
2023-02-16T05:53:42.048Z,28.40
2023-02-16T05:54:44.700Z,28.83
2023-02-16T05:55:47.164Z,30.25
2023-02-16T05:56:51.505Z,30.92
2023-02-16T05:57:54.089Z,31.27
2023-02-16T05:58:56.617Z,28.23
2023-02-16T05:59:59.119Z,30.05
2023-02-16T06:01:02.020Z,28.88
2023-02-16T06:02:04.838Z,31.10
2023-02-16T06:03:07.577Z,29.80
2023-02-16T06:04:11.387Z,30.23
2023-02-16T06:05:13.962Z,29.27
2023-02-16T06:06:16.654Z,30.00
2023-02-16T06:07:19.196Z,28.40
2023-02-16T06:08:21.679Z,30.77
2023-02-16T06:09:24.371Z,30.42
2023-02-16T06:10:27.050Z,30.58
2023-02-16T06:11:38.701Z,30.17
2023-02-16T06:12:43.224Z,29.98
2023-02-16T06:13:47.094Z,30.05
2023-02-16T06:14:49.726Z,30.80
2023-02-16T06:15:54.563Z,30.95
2023-02-16T06:16:58.836Z,31.13
2023-02-16T06:18:03.298Z,30.85
2023-02-16T06:19:06.513Z,33.10
2023-02-16T06:20:09.780Z,30.20
2023-02-16T06:21:12.259Z,29.35
2023-02-16T06:22:14.987Z,29.73
2023-02-16T06:23:17.757Z,33.28
2023-02-16T06:24:20.222Z,30.95
2023-02-16T06:25:22.668Z,31.83
2023-02-16T06:26:25.569Z,32.85
2023-02-16T06:27:28.864Z,35.97
2023-02-16T06:28:31.475Z,34.65
2023-02-16T06:29:33.926Z,37.78
2023-02-16T06:30:36.538Z,37.15
2023-02-16T06:31:39.227Z,33.47
2023-02-16T06:32:41.967Z,34.70
2023-02-16T06:33:44.816Z,35.42
2023-02-16T06:34:47.404Z,33.53
2023-02-16T06:35:49.930Z,33.22
2023-02-16T06:36:52.337Z,29.73
2023-02-16T06:37:54.811Z,33.00
2023-02-16T06:38:57.309Z,34.72
2023-02-16T06:39:59.792Z,32.53
2023-02-16T06:41:02.400Z,35.05
2023-02-16T06:42:05.085Z,34.72
2023-02-16T06:43:07.503Z,32.70
2023-02-16T06:44:15.333Z,34.58
2023-02-16T06:45:18.165Z,33.97
2023-02-16T06:46:20.610Z,32.22
2023-02-16T06:47:23.044Z,32.72
2023-02-16T06:48:25.571Z,33.88
2023-02-16T06:49:28.239Z,33.03
2023-02-16T06:50:30.983Z,33.90
2023-02-16T06:51:33.752Z,33.25
2023-02-16T06:52:37.307Z,33.38
2023-02-16T06:53:39.852Z,34.30
2023-02-16T06:54:42.748Z,34.00
2023-02-16T06:55:45.851Z,34.00
2023-02-16T06:56:48.378Z,33.88
2023-02-16T06:57:50.820Z,32.95
2023-02-16T06:58:53.302Z,33.75
2023-02-16T06:59:56.591Z,33.58
2023-02-16T07:00:59.164Z,33.70
2023-02-16T07:02:01.641Z,35.85
2023-02-16T07:03:04.240Z,33.35
2023-02-16T07:04:06.793Z,33.92
2023-02-16T07:05:09.586Z,30.80
2023-02-16T07:06:12.267Z,34.30
2023-02-16T07:07:14.910Z,34.55
2023-02-16T07:08:17.327Z,33.13
2023-02-16T07:09:19.839Z,33.88
2023-02-16T07:10:22.296Z,36.95
2023-02-16T07:11:24.753Z,36.00
2023-02-16T07:12:27.446Z,37.90
2023-02-16T07:13:29.931Z,36.55
2023-02-16T07:14:32.662Z,34.90
2023-02-16T07:15:35.150Z,35.13
2023-02-16T07:16:37.806Z,35.08
2023-02-16T07:17:40.319Z,34.08
2023-02-16T07:18:42.886Z,34.33
2023-02-16T07:19:45.519Z,33.40
2023-02-16T07:20:48.217Z,35.47
2023-02-16T07:21:50.923Z,32.65
2023-02-16T07:22:53.463Z,34.33
2023-02-16T07:23:56.095Z,33.00
2023-02-16T07:25:00.645Z,34.42
2023-02-16T07:26:03.227Z,33.38
2023-02-16T07:27:05.699Z,36.83
2023-02-16T07:28:08.261Z,32.70
2023-02-16T07:29:10.820Z,33.03
2023-02-16T07:30:16.557Z,37.03
2023-02-16T07:31:19.614Z,35.03
2023-02-16T07:32:22.156Z,35.25
2023-02-16T07:33:24.686Z,37.20
2023-02-16T07:34:27.154Z,35.88
2023-02-16T07:35:29.745Z,34.40
2023-02-16T07:36:32.396Z,35.33
2023-02-16T07:37:35.077Z,37.00
2023-02-16T07:38:38.137Z,34.70
2023-02-16T07:39:40.687Z,33.35
2023-02-16T07:40:43.089Z,35.05
2023-02-16T07:41:45.539Z,36.25
2023-02-16T07:42:53.243Z,33.35
2023-02-16T07:43:55.820Z,35.67
2023-02-16T07:44:58.812Z,34.47
2023-02-16T07:46:01.571Z,33.97
2023-02-16T07:47:05.178Z,36.63
2023-02-16T07:48:07.734Z,33.85
2023-02-16T07:49:10.175Z,34.88
2023-02-16T07:50:12.824Z,33.72
2023-02-16T07:51:24.796Z,34.35
2023-02-16T07:52:31.162Z,33.80
2023-02-16T07:53:33.841Z,32.35
2023-02-16T07:54:36.303Z,36.95
2023-02-16T07:55:40.681Z,35.95
2023-02-16T07:56:43.218Z,33.78
2023-02-16T07:57:45.717Z,35.53
2023-02-16T07:58:48.355Z,34.05
2023-02-16T07:59:53.781Z,35.30
2023-02-16T08:00:57.832Z,37.03
2023-02-16T08:02:00.534Z,34.78
2023-02-16T08:03:03.894Z,36.63
2023-02-16T08:04:07.196Z,35.25
2023-02-16T08:05:09.734Z,35.17
2023-02-16T08:06:12.563Z,35.13
2023-02-16T08:07:16.802Z,33.53
2023-02-16T08:08:19.352Z,35.13
2023-02-16T08:09:22.057Z,34.25
2023-02-16T08:10:24.754Z,36.65
2023-02-16T08:11:27.308Z,33.40
2023-02-16T08:12:30.177Z,37.25
2023-02-16T08:13:32.622Z,35.15
2023-02-16T08:14:35.056Z,35.80
2023-02-16T08:15:37.718Z,36.13
2023-02-16T08:16:40.294Z,35.95
2023-02-16T08:17:43.588Z,35.15
2023-02-16T08:18:46.182Z,35.92
2023-02-16T08:19:48.841Z,35.58
2023-02-16T08:21:03.642Z,34.83
2023-02-16T08:22:07.677Z,34.03
2023-02-16T08:23:10.403Z,35.58
2023-02-16T08:24:13.314Z,35.80
2023-02-16T08:25:16.000Z,33.38
2023-02-16T08:26:19.404Z,34.85
2023-02-16T08:27:22.013Z,33.83
2023-02-16T08:28:28.499Z,36.92
2023-02-16T08:29:32.136Z,36.30
2023-02-16T08:30:34.824Z,34.80
2023-02-16T08:31:38.370Z,35.22
2023-02-16T08:32:41.351Z,35.03
2023-02-16T08:33:44.094Z,35.33
2023-02-16T08:34:46.724Z,35.35
2023-02-16T08:35:49.403Z,34.47
2023-02-16T08:36:57.102Z,33.28
2023-02-16T08:38:00.118Z,34.85
2023-02-16T08:39:11.257Z,34.47
2023-02-16T08:40:13.926Z,34.78
2023-02-16T08:41:18.248Z,35.88
2023-02-16T08:42:21.330Z,33.83
2023-02-16T08:43:24.060Z,36.35
2023-02-16T08:44:28.974Z,36.50
2023-02-16T08:45:32.714Z,36.50
2023-02-16T08:46:37.277Z,35.28
2023-02-16T08:47:39.989Z,35.42
2023-02-16T08:48:45.274Z,36.15
2023-02-16T08:49:48.000Z,36.45
2023-02-16T08:50:53.589Z,34.75
2023-02-16T08:51:58.440Z,35.95
2023-02-16T08:53:02.552Z,36.30
2023-02-16T08:54:08.582Z,34.03
2023-02-16T08:55:11.205Z,35.45
2023-02-16T08:56:14.930Z,33.67
2023-02-16T08:57:18.678Z,37.05
2023-02-16T08:58:21.229Z,33.85
2023-02-16T08:59:26.622Z,36.05
2023-02-16T09:00:37.785Z,34.95
2023-02-16T09:01:40.535Z,35.38
2023-02-16T09:02:43.418Z,37.75
2023-02-16T09:03:46.397Z,37.15
2023-02-16T09:04:49.820Z,36.40
2023-02-16T09:05:53.074Z,36.67
2023-02-16T09:06:56.560Z,34.97
2023-02-16T09:07:59.228Z,35.50
2023-02-16T09:09:01.934Z,36.85
2023-02-16T09:10:05.075Z,35.30
2023-02-16T09:11:17.099Z,37.17
2023-02-16T09:12:19.929Z,36.33
2023-02-16T09:13:22.451Z,37.58
2023-02-16T09:14:25.022Z,36.50
2023-02-16T09:15:27.670Z,35.00
2023-02-16T09:16:34.735Z,34.85
2023-02-16T09:17:37.521Z,36.83
2023-02-16T09:18:40.997Z,36.10
2023-02-16T09:19:44.829Z,36.00
2023-02-16T09:20:47.642Z,36.05
2023-02-16T09:21:56.734Z,36.20
2023-02-16T09:22:59.344Z,33.85
2023-02-16T09:24:03.931Z,36.90
2023-02-16T09:25:07.552Z,36.83
2023-02-16T09:26:11.417Z,36.17
2023-02-16T09:27:14.100Z,37.25
2023-02-16T09:28:17.290Z,36.40
2023-02-16T09:29:21.390Z,34.97
2023-02-16T09:30:24.217Z,35.88
2023-02-16T09:31:29.592Z,36.60
2023-02-16T09:32:32.245Z,36.58
2023-02-16T09:33:35.015Z,36.80
2023-02-16T09:34:38.458Z,36.55
2023-02-16T09:35:43.269Z,37.15
2023-02-16T09:36:45.910Z,36.58
2023-02-16T09:37:50.160Z,35.03
2023-02-16T09:38:54.333Z,34.50
2023-02-16T09:39:57.001Z,38.47
2023-02-16T09:41:05.790Z,36.90
2023-02-16T09:42:28.374Z,35.00
2023-02-16T09:43:45.636Z,34.92
2023-02-16T09:45:09.886Z,34.85
2023-02-16T09:46:14.081Z,35.72
2023-02-16T09:47:24.816Z,37.28
2023-02-16T09:48:36.712Z,38.92
2023-02-16T09:49:42.359Z,36.00
2023-02-16T09:50:54.912Z,36.08
2023-02-16T09:52:05.052Z,37.22
2023-02-16T09:53:15.237Z,34.47
2023-02-16T09:54:29.332Z,37.08
2023-02-16T09:55:38.728Z,34.92
2023-02-16T09:56:50.476Z,36.75
2023-02-16T09:58:04.660Z,36.58
2023-02-16T09:59:17.363Z,36.75
2023-02-16T10:00:20.417Z,35.85
2023-02-16T10:01:34.777Z,35.85
2023-02-16T10:02:52.668Z,36.08
2023-02-16T10:04:21.166Z,34.10
2023-02-16T10:05:29.675Z,33.45
2023-02-16T10:06:45.449Z,34.92
2023-02-16T10:08:31.392Z,35.83
2023-02-16T10:09:34.871Z,34.50
2023-02-16T10:10:48.333Z,34.20
2023-02-16T10:11:57.047Z,34.25
2023-02-16T10:13:05.306Z,35.25
2023-02-16T10:14:31.741Z,37.75
2023-02-16T10:15:35.238Z,35.00
2023-02-16T10:16:42.761Z,35.75
2023-02-16T10:17:46.141Z,37.13
2023-02-16T10:18:51.206Z,32.92
2023-02-16T10:19:58.006Z,35.40
2023-02-16T10:21:04.232Z,33.78
2023-02-16T10:22:11.455Z,36.47
2023-02-16T10:23:47.762Z,36.53
2023-02-16T10:24:58.630Z,35.80
2023-02-16T10:26:14.387Z,33.50
2023-02-16T10:27:17.155Z,33.58
2023-02-16T10:28:23.144Z,34.10
2023-02-16T10:29:27.108Z,35.58
2023-02-16T10:30:30.523Z,34.25
2023-02-16T10:32:03.572Z,36.70
2023-02-16T10:33:17.215Z,32.75
2023-02-16T10:34:24.395Z,34.67
2023-02-16T10:35:48.914Z,35.25
2023-02-16T10:37:12.572Z,33.55
2023-02-16T10:38:27.362Z,34.00
2023-02-16T10:39:36.123Z,33.22
2023-02-16T10:40:48.234Z,33.22
2023-02-16T10:42:09.874Z,35.97
2023-02-16T10:43:24.619Z,35.03
2023-02-16T10:44:36.190Z,35.10
2023-02-16T10:45:42.049Z,35.88
2023-02-16T10:46:47.901Z,35.63
2023-02-16T10:47:51.523Z,35.83
2023-02-16T10:48:54.967Z,32.42
2023-02-16T10:49:57.526Z,36.13
2023-02-16T10:51:12.939Z,34.47
2023-02-16T10:52:15.690Z,32.80
2023-02-16T10:53:22.239Z,34.65
2023-02-16T10:54:27.888Z,33.13
2023-02-16T10:55:30.696Z,35.90
2023-02-16T10:56:54.172Z,34.67
2023-02-16T10:57:59.733Z,32.50
2023-02-16T10:59:07.029Z,34.80
2023-02-16T11:00:14.370Z,33.88
2023-02-16T11:01:21.510Z,34.03
2023-02-16T11:02:39.152Z,34.60
2023-02-16T11:03:54.585Z,33.67
2023-02-16T11:04:58.973Z,34.15
2023-02-16T11:06:17.545Z,32.90
2023-02-16T11:07:25.634Z,32.88
2023-02-16T11:08:51.104Z,33.00
2023-02-16T11:09:56.310Z,33.63
2023-02-16T11:11:09.178Z,33.90
2023-02-16T11:12:32.614Z,32.15
2023-02-16T11:13:37.432Z,34.15
2023-02-16T11:14:40.829Z,32.97
2023-02-16T11:15:43.879Z,33.30
2023-02-16T11:16:46.665Z,32.72
2023-02-16T11:18:04.790Z,34.10
2023-02-16T11:19:13.671Z,32.70
2023-02-16T11:20:45.144Z,34.08
2023-02-16T11:21:55.493Z,32.38
2023-02-16T11:23:25.696Z,31.55
2023-02-16T11:24:37.476Z,33.38
2023-02-16T11:25:40.332Z,33.75
2023-02-16T11:26:43.849Z,32.47
2023-02-16T11:27:55.224Z,32.88
2023-02-16T11:29:08.840Z,31.92
2023-02-16T11:30:23.414Z,31.42
2023-02-16T11:31:34.897Z,32.97
2023-02-16T11:32:38.284Z,30.83
2023-02-16T11:33:42.269Z,31.02
2023-02-16T11:34:51.681Z,30.95
2023-02-16T11:35:55.409Z,31.45
2023-02-16T11:37:24.324Z,31.52
2023-02-16T11:38:57.757Z,31.48
2023-02-16T11:40:03.912Z,32.58
2023-02-16T11:41:07.692Z,33.38
2023-02-16T11:42:34.860Z,30.73
2023-02-16T11:43:38.788Z,31.15
2023-02-16T11:44:51.448Z,30.73
2023-02-16T11:46:06.829Z,30.40
2023-02-16T11:47:21.416Z,30.95
2023-02-16T11:48:29.690Z,30.33
2023-02-16T11:49:41.710Z,32.22
2023-02-16T11:51:11.721Z,30.20
2023-02-16T11:52:23.303Z,30.08
2023-02-16T11:53:33.841Z,30.70
2023-02-16T11:54:36.529Z,29.13
2023-02-16T11:55:41.794Z,28.85
2023-02-16T11:56:46.231Z,30.45
2023-02-16T11:57:49.177Z,29.95
2023-02-16T11:59:16.959Z,31.73
2023-02-16T12:00:22.558Z,32.38
2023-02-16T12:01:40.597Z,29.85
2023-02-16T12:02:46.511Z,29.15
2023-02-16T12:03:51.957Z,31.10
2023-02-16T12:05:22.424Z,29.25
2023-02-16T12:06:43.382Z,29.73
2023-02-16T12:08:08.864Z,26.95
2023-02-16T12:09:23.346Z,28.83
2023-02-16T12:10:41.433Z,28.52
2023-02-16T12:12:20.004Z,28.30
2023-02-16T12:13:28.685Z,28.80
2023-02-16T12:14:46.688Z,28.13
2023-02-16T12:15:57.766Z,27.80
2023-02-16T12:17:12.081Z,29.35
2023-02-16T12:18:26.458Z,29.70
2023-02-16T12:19:41.888Z,29.88
2023-02-16T12:20:59.172Z,30.17
2023-02-16T12:22:07.758Z,30.35
2023-02-16T12:23:18.786Z,29.33
2023-02-16T12:24:49.569Z,29.25
2023-02-16T12:26:11.534Z,29.40
2023-02-16T12:27:46.954Z,30.40
2023-02-16T12:29:03.686Z,28.48
2023-02-16T12:30:12.384Z,29.90
2023-02-16T12:31:27.063Z,31.15
2023-02-16T12:32:48.602Z,29.85
2023-02-16T12:34:04.647Z,29.45
2023-02-16T12:35:15.966Z,30.05
2023-02-16T12:36:20.186Z,28.55
2023-02-16T12:37:44.178Z,30.75
2023-02-16T12:38:56.839Z,31.45
2023-02-16T12:40:15.584Z,29.15
2023-02-16T12:41:54.905Z,28.40
2023-02-16T12:43:21.905Z,29.77
2023-02-16T12:44:38.217Z,29.73
2023-02-16T12:45:44.459Z,29.85
2023-02-16T12:46:48.986Z,29.95
2023-02-16T12:47:58.185Z,30.38
2023-02-16T12:49:27.582Z,29.67
2023-02-16T12:50:32.739Z,30.17
2023-02-16T12:51:38.704Z,30.02
2023-02-16T12:52:46.509Z,30.88
2023-02-16T12:54:12.068Z,27.95
2023-02-16T12:55:38.260Z,30.35
2023-02-16T12:56:48.029Z,29.52
2023-02-16T12:57:57.177Z,30.70
2023-02-16T12:59:26.578Z,30.17
2023-02-16T13:00:35.739Z,29.38
2023-02-16T13:01:38.313Z,31.95
2023-02-16T13:02:46.329Z,29.27
2023-02-16T13:04:08.977Z,30.70
2023-02-16T13:05:18.942Z,28.70
2023-02-16T13:06:55.840Z,31.02
2023-02-16T13:08:39.173Z,28.42
2023-02-16T13:09:46.288Z,28.48
2023-02-16T13:10:58.863Z,31.55
2023-02-16T13:12:12.221Z,28.27
2023-02-16T13:13:25.368Z,28.65
2023-02-16T13:14:32.702Z,29.02
2023-02-16T13:15:43.650Z,29.25
2023-02-16T13:16:56.328Z,29.38
2023-02-16T13:18:22.219Z,29.77
2023-02-16T13:19:25.206Z,29.55
2023-02-16T13:20:28.813Z,29.35
2023-02-16T13:21:51.586Z,29.15
2023-02-16T13:22:57.065Z,27.55
2023-02-16T13:24:08.369Z,29.45
2023-02-16T13:25:52.742Z,28.48
2023-02-16T13:27:01.576Z,28.30
2023-02-16T13:28:25.633Z,29.88
2023-02-16T13:29:34.580Z,28.08
2023-02-16T13:30:58.323Z,27.80
2023-02-16T13:32:22.850Z,28.65
2023-02-16T13:34:08.411Z,28.10
2023-02-16T13:35:35.703Z,27.45
2023-02-16T13:36:57.355Z,31.00
2023-02-16T13:38:23.930Z,32.40
2023-02-16T13:39:34.716Z,32.67
2023-02-16T13:42:07.159Z,31.73
2023-02-16T13:43:37.133Z,31.95
2023-02-16T13:44:48.776Z,29.60
2023-02-16T13:45:54.778Z,31.77
2023-02-16T13:46:57.387Z,30.05
2023-02-16T13:48:00.464Z,29.85
2023-02-16T13:49:03.274Z,30.42
2023-02-16T13:50:22.545Z,30.08
2023-02-16T13:51:27.463Z,31.20
2023-02-16T13:52:34.033Z,30.00
2023-02-16T13:53:38.382Z,32.30
2023-02-16T13:54:45.143Z,29.27
2023-02-16T13:55:52.841Z,30.58
2023-02-16T13:56:55.586Z,28.92
2023-02-16T13:58:01.276Z,27.55
2023-02-16T13:59:19.589Z,29.25
2023-02-16T14:00:31.387Z,33.05
2023-02-16T14:01:39.948Z,30.33
2023-02-16T14:03:22.260Z,29.52
2023-02-16T14:04:24.944Z,30.92
2023-02-16T14:05:39.814Z,30.50
2023-02-16T14:06:42.984Z,29.27
2023-02-16T14:07:45.926Z,30.42
2023-02-16T14:09:14.567Z,32.28
2023-02-16T14:10:17.204Z,29.00
2023-02-16T14:11:19.963Z,28.83
2023-02-16T14:12:31.881Z,30.40
2023-02-16T14:13:37.573Z,29.45
2023-02-16T14:14:43.473Z,30.65
2023-02-16T14:15:53.477Z,30.63
2023-02-16T14:16:56.810Z,29.95
2023-02-16T14:17:59.312Z,30.10
2023-02-16T14:19:03.642Z,30.60
2023-02-16T14:20:22.606Z,30.73
2023-02-16T14:21:40.006Z,29.15
2023-02-16T14:22:57.568Z,29.30
2023-02-16T14:24:01.292Z,28.42
2023-02-16T14:25:07.376Z,29.70
2023-02-16T14:26:14.768Z,30.30
2023-02-16T14:27:45.084Z,29.92
2023-02-16T14:29:09.781Z,28.95
2023-02-16T14:30:18.204Z,29.70
2023-02-16T14:31:23.180Z,29.40
2023-02-16T14:32:38.576Z,27.13
2023-02-16T14:33:43.915Z,28.92
2023-02-16T14:34:56.469Z,28.55
2023-02-16T14:35:58.974Z,29.83
2023-02-16T14:37:17.071Z,29.98
2023-02-16T14:38:30.616Z,29.38
2023-02-16T14:39:34.954Z,29.20
2023-02-16T14:40:43.986Z,29.25
2023-02-16T14:41:46.591Z,28.95
2023-02-16T14:42:55.831Z,30.13
2023-02-16T14:44:04.397Z,28.08
2023-02-16T14:45:09.905Z,27.83